East Genoa, New York
Current Conditions -  °F | °C
As of 3:35 AM on Saturday 20 Dec 2014 (Local Time) from KN03 Reporting Station
Overcast Overcast  
Wind Chill: -2°   Ceiling: 1200
Heat Index: -2°   Visibility: 10mi
Dew Point: -3°   Wind: 0mph
Humidity: 93%   Direction: NA
Pressure: 30.17"   Gusts: NA
Location:  42.6513°N, 76.421°W
Report Text: KN03 200835Z AUTO 00000KT 10SM OVC012 M02/M03 A3017 RMK AO2
Loading
Personal Weather Stations






























Interactive Weather Map New forecast layout! Learn more

10-Day Weather Forecast

Advertisements
Track Severe Weather on mobile